Weather observations for the past three days for
Fort Myers, Page Field
Imperial (Metric)
Date Time (edt) Wind (mph) Vis. (mi.) Weather Sky Cond. Temperature (ºF) Relative Humidity Wind Chill (°F) Heat Index (°F) Pressure Precipitation (in)
Air Dwpt 6 hour altimeter (in) sea level (mb) 1 hr 3 hr 6 hr
Max. Min.
08 07:53 SE 3 0.13 Fog VV002 72 72 75.9 72 100% 29.99 1015.7
08 06:53 E 5 1.00 Fog/Mist VV002 73 70 90% 29.96 1014.8
08 05:53 Calm 9.00 Fair CLR 73 70 90% 29.94 1014.0
08 04:53 Calm 10.00 Fair CLR 73 70 90% 29.93 1013.8
08 03:53 Calm 10.00 Fair CLR 75.9 72 88% 76 29.93 1013.8
08 02:53 NW 3 10.00 Fair CLR 75.9 72 88% 76 29.94 1014.1
08 01:53 NW 3 10.00 Fair CLR 75.9 72 82.9 75.9 88% 76 29.95 1014.3
08 00:53 NW 5 10.00 Fair CLR 77 72 85% 78 29.96 1014.7
07 23:53 NW 7 10.00 Fair CLR 77 72 85% 78 29.97 1015.0
07 22:53 NW 6 10.00 Fair CLR 78.1 73 85% 81 29.97 1014.9
07 21:53 W 7 10.00 Fair CLR 79 72 79% 82 29.95 1014.5
07 20:53 W 8 10.00 Fair CLR 80.1 69.1 69% 83 29.95 1014.5
07 19:53 W 10 10.00 Fair CLR 82.9 64.9 91 82.9 55% 85 29.96 1014.6
07 18:53 W 10 10.00 Fair CLR 87.1 64 46% 88 29.94 1014.1
07 17:53 W 12 10.00 Fair CLR 88 64 45% 89 29.94 1014.0
07 16:53 W 12 10.00 Fair CLR 90 60.1 37% 90 29.94 1014.1
07 15:53 W 10 10.00 Fair CLR 90 64.9 44% 92 29.95 1014.5
07 14:53 W 10 G 20 10.00 Fair CLR 90 64 42% 91 29.98 1015.2
07 13:53 W 13 10.00 Fair CLR 89.1 61 89.1 73.9 39% 89 30 1016.2
07 12:53 W 13 G 17 10.00 Fair CLR 87.1 66 50% 89 30.01 1016.5
07 11:53 SW 10 G 16 10.00 Mostly Cloudy BKN030 84.9 68 57% 88 30.02 1016.6
07 10:53 S 10 10.00 Partly Cloudy SCT025 84.9 70 61% 89 30.02 1016.8
07 09:53 SW 9 10.00 Mostly Cloudy BKN020 81 70 69% 84 30.02 1016.7
07 08:53 E 5 10.00 Fair CLR 78.1 71.1 79% 80 30.02 1016.6
07 07:53 SE 3 10.00 Fair CLR 73.9 70 73.9 72 88% 30.01 1016.5
07 06:53 Calm 10.00 A Few Clouds FEW021 72 68 87% 29.99 1015.7
07 05:53 Calm 10.00 Fair CLR 73 69.1 87% 29.97 1015.0
07 04:53 Calm 10.00 Fair CLR 73 69.1 87% 29.96 1014.7
07 03:53 S 5 10.00 Fair CLR 72 69.1 91% 29.96 1014.8
07 02:53 SE 5 10.00 Fair CLR 73 68 84% 29.97 1015.1
07 01:53 Calm 10.00 Fair CLR 73.9 66.9 82.9 73 79% 29.99 1015.7
07 00:53 NE 3 10.00 Fair CLR 75 66.9 76% 76 30 1016.0
06 23:53 Calm 10.00 Fair CLR 75.9 68 77% 77 30.01 1016.2
06 22:53 Calm 10.00 Mostly Cloudy BKN050 79 69.1 72% 82 30.01 1016.3
06 21:53 W 5 10.00 Fair CLR 79 66.9 67% 81 29.99 1015.7
06 20:53 W 3 10.00 Fair CLR 80.1 66 62% 82 29.99 1015.6
06 19:53 W 7 10.00 Fair CLR 82.9 63 90 82.9 51% 84 29.98 1015.3
06 18:53 W 9 10.00 Fair CLR 84.9 62.1 46% 85 29.98 1015.2
06 17:53 SW 10 10.00 Fair CLR 86 62.1 45% 87 29.97 1015.1
06 16:53 SW 12 10.00 Fair CLR 87.1 62.1 43% 88 29.97 1015.0
06 15:53 SW 12 G 21 10.00 Fair CLR 88 64.9 46% 90 29.98 1015.3
06 14:53 SW 12 10.00 Fair CLR 87.1 68 53% 91 30 1015.9
06 13:53 SW 10 10.00 Partly Cloudy SCT038 87.1 69.1 89.1 72 55% 91 30.01 1016.4
06 12:53 S 8 10.00 Partly Cloudy SCT042 SCT050 87.1 69.1 55% 91 30.02 1016.8
06 11:53 S 9 10.00 Fair CLR 86 64.9 49% 88 30.03 1017.0
06 10:53 SE 10 10.00 A Few Clouds FEW025 82.9 68 61% 86 30.03 1017.2
06 09:53 SE 8 10.00 A Few Clouds FEW019 81 70 69% 84 30.02 1016.9
06 08:53 SE 9 10.00 Fair CLR 77 70 79% 79 30.01 1016.5
06 07:53 E 6 10.00 Fair CLR 72 69.1 73 70 91% 30 1016.2
06 06:53 SE 5 10.00 Fair CLR 71.1 68 90% 29.98 1015.5
06 05:53 E 6 10.00 Fair CLR 71.1 68 90% 29.98 1015.3
06 04:53 E 5 10.00 Fair CLR 71.1 68 90% 29.97 1015.1
06 03:53 E 5 10.00 Fair CLR 72 68 87% 29.98 1015.4
06 02:53 E 3 10.00 Fair CLR 72 68 87% 29.98 1015.5
06 01:53 E 3 10.00 Fair CLR 73 66.9 79 73 81% 29.99 1015.8
06 00:53 E 8 10.00 Fair CLR 73.9 66.9 79% 30 1015.9
05 23:53 E 9 10.00 Fair CLR 75.9 66.9 74% 77 30 1016.2
05 22:53 E 9 10.00 A Few Clouds FEW035 77 66.9 71% 79 30 1016.1
05 21:53 E 6 10.00 Mostly Cloudy BKN037 79 66.9 67% 81 29.99 1015.6
05 20:53 NW 5 10.00 Partly Cloudy FEW040 FEW048 SCT060 78.1 66.9 69% 80 29.96 1014.7
05 19:53 N 10 10.00 Partly Cloudy SCT050 SCT060 79 66.9 90 79 67% 81 29.96 1014.5
05 18:53 NW 10 10.00 Fair CLR 82 66 58% 84 29.94 1013.9
05 17:53 W 14 10.00 Fair CLR 86 66.9 53% 89 29.92 1013.4
05 16:53 W 15 10.00 Fair CLR 87.1 66.9 51% 90 29.92 1013.4
05 15:53 SW 9 9.00 Partly Cloudy SCT065 86 64.9 49% 88 29.92 1013.4
05 14:53 Vrbl 3 10.00 Partly Cloudy SCT060 88 61 40% 88 29.94 1014.1
05 13:53 E 5 10.00 A Few Clouds FEW060 87.1 61 88 71.1 42% 87 29.96 1014.8
05 12:53 E 6 10.00 Partly Cloudy FEW041 SCT055 84 63 49% 85 29.97 1015.0
05 11:53 SE 6 10.00 Fair CLR 82 66 58% 84 29.99 1015.6
05 10:53 SE 8 10.00 Mostly Cloudy SCT027 BKN040 81 66.9 62% 83 29.99 1015.6
05 09:53 E 10 10.00 A Few Clouds FEW019 79 66.9 67% 81 29.98 1015.3
05 08:53 E 9 10.00 Fair CLR 75 66 74% 76 29.98 1015.2
Date Time (edt) Wind (mph) Vis. (mi.) Weather Sky Cond. Air Dwpt Max. Min. Relative Humidity Wind Chill (°F) Heat Index (°F) altimeter (in) sea level (mb) 1 hr 3 hr 6 hr
6 hour
Temperature (ºF) Pressure Precipitation (in)